sensor_id;sensor_type;location;lat;lon;timestamp;pressure;altitude;pressure_sealevel;temperature;humidity
75775;BME280;64505;51.458;7.556;2022-10-31T00:00:23;100243.72;;;12.34;82.07
75775;BME280;64505;51.458;7.556;2022-10-31T00:02:27;100242.16;;;12.45;81.65
75775;BME280;64505;51.458;7.556;2022-10-31T00:04:30;100237.91;;;12.44;81.93
75775;BME280;64505;51.458;7.556;2022-10-31T00:06:33;100235.69;;;12.41;82.38
75775;BME280;64505;51.458;7.556;2022-10-31T00:08:36;100240.56;;;12.44;81.88
75775;BME280;64505;51.458;7.556;2022-10-31T00:10:39;100251.09;;;12.51;81.71
75775;BME280;64505;51.458;7.556;2022-10-31T00:12:41;100250.78;;;12.59;81.89
75775;BME280;64505;51.458;7.556;2022-10-31T00:14:44;100246.38;;;12.53;82.21
75775;BME280;64505;51.458;7.556;2022-10-31T00:16:47;100247.75;;;12.55;82.33
75775;BME280;64505;51.458;7.556;2022-10-31T00:18:52;100245.25;;;12.60;81.48
75775;BME280;64505;51.458;7.556;2022-10-31T00:20:59;100250.13;;;12.63;81.53
75775;BME280;64505;51.458;7.556;2022-10-31T00:23:02;100244.22;;;12.61;81.45
75775;BME280;64505;51.458;7.556;2022-10-31T00:25:06;100254.47;;;12.58;81.75
75775;BME280;64505;51.458;7.556;2022-10-31T00:27:09;100257.25;;;12.63;81.59
75775;BME280;64505;51.458;7.556;2022-10-31T00:29:11;100256.69;;;12.61;81.76
75775;BME280;64505;51.458;7.556;2022-10-31T00:31:14;100250.94;;;12.64;81.56
75775;BME280;64505;51.458;7.556;2022-10-31T00:33:17;100251.38;;;12.61;81.74
75775;BME280;64505;51.458;7.556;2022-10-31T00:35:21;100246.88;;;12.61;81.64
75775;BME280;64505;51.458;7.556;2022-10-31T00:37:23;100249.91;;;12.65;81.07
75775;BME280;64505;51.458;7.556;2022-10-31T00:39:26;100250.94;;;12.64;81.58
75775;BME280;64505;51.458;7.556;2022-10-31T00:41:29;100246.88;;;12.61;81.78
75775;BME280;64505;51.458;7.556;2022-10-31T00:43:31;100253.13;;;12.67;81.65
75775;BME280;64505;51.458;7.556;2022-10-31T00:45:34;100256.22;;;12.64;82.03
75775;BME280;64505;51.458;7.556;2022-10-31T00:47:37;100254.91;;;12.73;81.57
75775;BME280;64505;51.458;7.556;2022-10-31T00:49:40;100256.38;;;12.69;81.99
75775;BME280;64505;51.458;7.556;2022-10-31T00:51:44;100247.63;;;12.68;81.47
75775;BME280;64505;51.458;7.556;2022-10-31T00:53:46;100240.22;;;12.70;81.47
75775;BME280;64505;51.458;7.556;2022-10-31T00:55:49;100245.97;;;12.67;81.26
75775;BME280;64505;51.458;7.556;2022-10-31T00:57:52;100240.75;;;12.61;81.85
75775;BME280;64505;51.458;7.556;2022-10-31T00:59:54;100249.66;;;12.66;81.20
75775;BME280;64505;51.458;7.556;2022-10-31T01:01:57;100243.56;;;12.66;81.45
75775;BME280;64505;51.458;7.556;2022-10-31T01:04:00;100244.69;;;12.58;82.45
75775;BME280;64505;51.458;7.556;2022-10-31T01:06:05;100248.56;;;12.56;82.16
75775;BME280;64505;51.458;7.556;2022-10-31T01:08:09;100248.53;;;12.44;82.57
75775;BME280;64505;51.458;7.556;2022-10-31T01:10:12;100250.00;;;12.58;81.85
75775;BME280;64505;51.458;7.556;2022-10-31T01:12:15;100246.81;;;12.68;81.58
75775;BME280;64505;51.458;7.556;2022-10-31T01:14:17;100246.06;;;12.61;82.00
75775;BME280;64505;51.458;7.556;2022-10-31T01:16:23;100253.22;;;12.60;82.19
75775;BME280;64505;51.458;7.556;2022-10-31T01:18:26;100254.25;;;12.59;82.15
75775;BME280;64505;51.458;7.556;2022-10-31T01:20:29;100246.16;;;12.54;82.34
75775;BME280;64505;51.458;7.556;2022-10-31T01:22:32;100251.09;;;12.51;82.62
75775;BME280;64505;51.458;7.556;2022-10-31T01:24:36;100252.41;;;12.42;83.37
75775;BME280;64505;51.458;7.556;2022-10-31T01:26:39;100246.16;;;12.36;83.79
75775;BME280;64505;51.458;7.556;2022-10-31T01:28:44;100241.81;;;12.42;83.12
75775;BME280;64505;51.458;7.556;2022-10-31T01:30:47;100261.34;;;12.47;83.25
75775;BME280;64505;51.458;7.556;2022-10-31T01:32:50;100247.03;;;12.48;83.17
75775;BME280;64505;51.458;7.556;2022-10-31T01:34:52;100249.44;;;12.68;82.21
75775;BME280;64505;51.458;7.556;2022-10-31T01:36:55;100252.03;;;12.74;82.97
75775;BME280;64505;51.458;7.556;2022-10-31T01:39:00;100240.94;;;12.77;81.93
75775;BME280;64505;51.458;7.556;2022-10-31T01:41:04;100239.56;;;12.75;82.72
75775;BME280;64505;51.458;7.556;2022-10-31T01:43:10;100245.91;;;12.74;82.51
75775;BME280;64505;51.458;7.556;2022-10-31T01:45:15;100252.63;;;12.76;81.92
75775;BME280;64505;51.458;7.556;2022-10-31T01:47:21;100257.56;;;12.73;83.08
75775;BME280;64505;51.458;7.556;2022-10-31T01:49:34;100259.53;;;12.77;82.78
75775;BME280;64505;51.458;7.556;2022-10-31T01:51:41;100263.34;;;12.81;82.66
75775;BME280;64505;51.458;7.556;2022-10-31T01:53:46;100270.09;;;12.84;82.90
75775;BME280;64505;51.458;7.556;2022-10-31T01:55:49;100271.13;;;12.83;83.25
75775;BME280;64505;51.458;7.556;2022-10-31T01:57:55;100283.63;;;12.94;82.35
75775;BME280;64505;51.458;7.556;2022-10-31T02:00:03;100279.72;;;12.97;82.26
75775;BME280;64505;51.458;7.556;2022-10-31T02:02:07;100286.78;;;13.03;82.09
75775;BME280;64505;51.458;7.556;2022-10-31T02:04:10;100279.41;;;13.05;81.32
75775;BME280;64505;51.458;7.556;2022-10-31T02:06:19;100281.44;;;13.09;81.34
75775;BME280;64505;51.458;7.556;2022-10-31T02:08:26;100282.34;;;13.15;80.72
75775;BME280;64505;51.458;7.556;2022-10-31T02:10:30;100264.88;;;13.07;81.86
75775;BME280;64505;51.458;7.556;2022-10-31T02:12:34;100251.31;;;12.97;82.14
75775;BME280;64505;51.458;7.556;2022-10-31T02:14:40;100244.13;;;12.86;83.23
75775;BME280;64505;51.458;7.556;2022-10-31T02:16:43;100238.28;;;12.66;83.99
75775;BME280;64505;51.458;7.556;2022-10-31T02:18:45;100235.38;;;12.49;84.66
75775;BME280;64505;51.458;7.556;2022-10-31T02:20:56;100236.38;;;12.37;85.09
75775;BME280;64505;51.458;7.556;2022-10-31T02:23:20;100233.75;;;12.30;84.53
75775;BME280;64505;51.458;7.556;2022-10-31T02:25:45;100231.72;;;12.14;85.12
75775;BME280;64505;51.458;7.556;2022-10-31T02:28:06;100233.00;;;12.05;85.00
75775;BME280;64505;51.458;7.556;2022-10-31T02:30:17;100226.56;;;12.01;85.33
75775;BME280;64505;51.458;7.556;2022-10-31T02:32:26;100238.75;;;12.02;85.31
75775;BME280;64505;51.458;7.556;2022-10-31T02:34:35;100232.72;;;11.95;85.30
75775;BME280;64505;51.458;7.556;2022-10-31T02:36:43;100229.16;;;11.82;85.36
75775;BME280;64505;51.458;7.556;2022-10-31T02:38:54;100220.91;;;11.66;86.62
75775;BME280;64505;51.458;7.556;2022-10-31T02:41:04;100223.13;;;11.75;86.19
75775;BME280;64505;51.458;7.556;2022-10-31T02:43:16;100218.06;;;11.67;85.88
75775;BME280;64505;51.458;7.556;2022-10-31T02:45:27;100224.81;;;11.63;86.11
75775;BME280;64505;51.458;7.556;2022-10-31T02:47:34;100217.50;;;11.59;85.94
75775;BME280;64505;51.458;7.556;2022-10-31T02:49:44;100214.34;;;11.68;85.24
75775;BME280;64505;51.458;7.556;2022-10-31T02:51:48;100221.34;;;11.63;85.93
75775;BME280;64505;51.458;7.556;2022-10-31T02:53:51;100226.78;;;11.50;87.01
75775;BME280;64505;51.458;7.556;2022-10-31T02:55:59;100241.59;;;11.57;86.37
75775;BME280;64505;51.458;7.556;2022-10-31T02:58:06;100246.91;;;11.51;86.87
75775;BME280;64505;51.458;7.556;2022-10-31T03:00:11;100238.81;;;11.46;86.95
75775;BME280;64505;51.458;7.556;2022-10-31T03:05:01;100232.47;;;11.47;85.45
75775;BME280;64505;51.458;7.556;2022-10-31T03:07:16;100238.63;;;11.41;86.63
75775;BME280;64505;51.458;7.556;2022-10-31T03:09:24;100238.34;;;11.24;86.54
75775;BME280;64505;51.458;7.556;2022-10-31T03:11:32;100246.72;;;11.21;86.75
75775;BME280;64505;51.458;7.556;2022-10-31T03:13:41;100247.13;;;11.18;86.18
75775;BME280;64505;51.458;7.556;2022-10-31T03:15:50;100251.03;;;11.15;86.79
75775;BME280;64505;51.458;7.556;2022-10-31T03:17:58;100252.41;;;11.24;86.50
75775;BME280;64505;51.458;7.556;2022-10-31T03:20:06;100259.31;;;11.25;86.07
75775;BME280;64505;51.458;7.556;2022-10-31T03:22:15;100265.94;;;11.10;86.67
75775;BME280;64505;51.458;7.556;2022-10-31T03:24:19;100261.63;;;11.15;86.43
75775;BME280;64505;51.458;7.556;2022-10-31T03:26:24;100272.00;;;11.17;86.48
75775;BME280;64505;51.458;7.556;2022-10-31T03:28:30;100263.81;;;11.18;86.44
75775;BME280;64505;51.458;7.556;2022-10-31T03:30:36;100263.81;;;11.25;86.18
75775;BME280;64505;51.458;7.556;2022-10-31T03:32:42;100268.69;;;11.28;85.37
75775;BME280;64505;51.458;7.556;2022-10-31T03:34:47;100266.03;;;11.21;85.54
75775;BME280;64505;51.458;7.556;2022-10-31T03:36:56;100272.19;;;11.15;86.32
75775;BME280;64505;51.458;7.556;2022-10-31T03:39:02;100275.16;;;11.32;86.06
75775;BME280;64505;51.458;7.556;2022-10-31T03:41:10;100275.75;;;11.34;86.03
75775;BME280;64505;51.458;7.556;2022-10-31T03:43:16;100267.63;;;11.29;86.84
75775;BME280;64505;51.458;7.556;2022-10-31T03:45:22;100264.78;;;11.30;86.57
75775;BME280;64505;51.458;7.556;2022-10-31T03:47:26;100262.94;;;11.31;86.45
75775;BME280;64505;51.458;7.556;2022-10-31T03:49:29;100267.19;;;11.39;86.27
75775;BME280;64505;51.458;7.556;2022-10-31T03:51:38;100268.53;;;11.48;86.33
75775;BME280;64505;51.458;7.556;2022-10-31T03:53:47;100278.88;;;11.56;86.31
75775;BME280;64505;51.458;7.556;2022-10-31T03:55:56;100275.53;;;11.67;85.34
75775;BME280;64505;51.458;7.556;2022-10-31T03:58:03;100275.28;;;11.68;85.37
75775;BME280;64505;51.458;7.556;2022-10-31T04:00:11;100270.00;;;11.68;84.49
75775;BME280;64505;51.458;7.556;2022-10-31T04:02:17;100268.75;;;11.77;84.94
75775;BME280;64505;51.458;7.556;2022-10-31T04:04:21;100261.38;;;11.79;85.62
75775;BME280;64505;51.458;7.556;2022-10-31T04:06:24;100259.06;;;11.90;84.71
75775;BME280;64505;51.458;7.556;2022-10-31T04:08:30;100262.94;;;11.87;84.85
75775;BME280;64505;51.458;7.556;2022-10-31T04:10:37;100266.22;;;11.89;84.46
75775;BME280;64505;51.458;7.556;2022-10-31T04:12:41;100260.47;;;11.92;84.32
75775;BME280;64505;51.458;7.556;2022-10-31T04:14:47;100265.00;;;11.85;85.86
75775;BME280;64505;51.458;7.556;2022-10-31T04:16:51;100257.06;;;11.85;85.77
75775;BME280;64505;51.458;7.556;2022-10-31T04:18:54;100251.59;;;11.80;86.42
75775;BME280;64505;51.458;7.556;2022-10-31T04:21:01;100250.38;;;11.82;85.30
75775;BME280;64505;51.458;7.556;2022-10-31T04:23:05;100250.88;;;11.91;84.72
75775;BME280;64505;51.458;7.556;2022-10-31T04:25:16;100248.09;;;11.86;85.17
75775;BME280;64505;51.458;7.556;2022-10-31T04:27:20;100244.63;;;11.86;84.64
75775;BME280;64505;51.458;7.556;2022-10-31T04:29:22;100244.41;;;11.87;85.00
75775;BME280;64505;51.458;7.556;2022-10-31T04:31:25;100248.28;;;11.84;86.27
75775;BME280;64505;51.458;7.556;2022-10-31T04:33:28;100237.16;;;11.76;86.61
75775;BME280;64505;51.458;7.556;2022-10-31T04:35:30;100242.72;;;11.68;86.27
75775;BME280;64505;51.458;7.556;2022-10-31T04:37:33;100239.31;;;11.61;86.59
75775;BME280;64505;51.458;7.556;2022-10-31T04:39:36;100243.69;;;11.49;86.55
75775;BME280;64505;51.458;7.556;2022-10-31T04:41:38;100240.28;;;11.42;86.36
75775;BME280;64505;51.458;7.556;2022-10-31T04:43:42;100236.81;;;11.41;86.53
75775;BME280;64505;51.458;7.556;2022-10-31T04:45:45;100234.66;;;11.31;86.67
75775;BME280;64505;51.458;7.556;2022-10-31T04:47:47;100233.59;;;11.32;85.81
75775;BME280;64505;51.458;7.556;2022-10-31T04:49:50;100230.41;;;11.24;86.83
75775;BME280;64505;51.458;7.556;2022-10-31T04:51:53;100232.56;;;11.33;86.44
75775;BME280;64505;51.458;7.556;2022-10-31T04:53:55;100231.72;;;11.40;85.63
75775;BME280;64505;51.458;7.556;2022-10-31T04:55:58;100241.13;;;11.35;85.96
75775;BME280;64505;51.458;7.556;2022-10-31T04:58:02;100237.53;;;11.23;86.53
75775;BME280;64505;51.458;7.556;2022-10-31T05:00:08;100239.75;;;11.26;87.27
75775;BME280;64505;51.458;7.556;2022-10-31T05:02:11;100244.88;;;11.21;87.37
75775;BME280;64505;51.458;7.556;2022-10-31T05:04:14;100238.22;;;11.12;87.76
75775;BME280;64505;51.458;7.556;2022-10-31T05:06:16;100239.28;;;11.05;87.52
75775;BME280;64505;51.458;7.556;2022-10-31T05:08:19;100234.63;;;11.00;86.02
75775;BME280;64505;51.458;7.556;2022-10-31T05:10:23;100228.41;;;10.88;87.84
75775;BME280;64505;51.458;7.556;2022-10-31T05:12:26;100213.97;;;10.84;88.02
75775;BME280;64505;51.458;7.556;2022-10-31T05:14:29;100213.16;;;10.83;87.26
75775;BME280;64505;51.458;7.556;2022-10-31T05:16:33;100212.41;;;10.70;87.78
75775;BME280;64505;51.458;7.556;2022-10-31T05:18:35;100205.25;;;10.77;87.41
75775;BME280;64505;51.458;7.556;2022-10-31T05:20:38;100223.00;;;10.70;87.43
75775;BME280;64505;51.458;7.556;2022-10-31T05:22:42;100222.38;;;10.68;87.55
75775;BME280;64505;51.458;7.556;2022-10-31T05:24:45;100226.84;;;10.67;88.52
75775;BME280;64505;51.458;7.556;2022-10-31T05:26:49;100226.44;;;10.70;87.83
75775;BME280;64505;51.458;7.556;2022-10-31T05:28:51;100220.38;;;10.63;87.91
75775;BME280;64505;51.458;7.556;2022-10-31T05:30:54;100219.81;;;10.55;88.21
75775;BME280;64505;51.458;7.556;2022-10-31T05:32:58;100210.19;;;10.60;87.80
75775;BME280;64505;51.458;7.556;2022-10-31T05:35:01;100216.31;;;10.61;88.17
75775;BME280;64505;51.458;7.556;2022-10-31T05:37:04;100220.81;;;10.54;87.58
75775;BME280;64505;51.458;7.556;2022-10-31T05:39:07;100218.00;;;10.42;88.46
75775;BME280;64505;51.458;7.556;2022-10-31T05:41:09;100201.53;;;10.47;87.66
75775;BME280;64505;51.458;7.556;2022-10-31T05:43:12;100208.03;;;10.44;88.12
75775;BME280;64505;51.458;7.556;2022-10-31T05:45:16;100216.56;;;10.46;87.97
75775;BME280;64505;51.458;7.556;2022-10-31T05:47:19;100214.16;;;10.45;87.78
75775;BME280;64505;51.458;7.556;2022-10-31T05:49:23;100208.03;;;10.44;88.23
75775;BME280;64505;51.458;7.556;2022-10-31T05:51:26;100209.25;;;10.48;88.13
75775;BME280;64505;51.458;7.556;2022-10-31T05:53:28;100200.09;;;10.51;87.78
75775;BME280;64505;51.458;7.556;2022-10-31T05:55:31;100203.94;;;10.55;86.50
75775;BME280;64505;51.458;7.556;2022-10-31T05:57:34;100199.50;;;10.49;87.43
75775;BME280;64505;51.458;7.556;2022-10-31T05:59:37;100201.31;;;10.48;86.27
75775;BME280;64505;51.458;7.556;2022-10-31T06:01:39;100202.72;;;10.51;86.59
75775;BME280;64505;51.458;7.556;2022-10-31T06:03:42;100204.13;;;10.53;87.25
75775;BME280;64505;51.458;7.556;2022-10-31T06:05:46;100209.44;;;10.47;87.69
75775;BME280;64505;51.458;7.556;2022-10-31T06:07:55;100213.50;;;10.49;87.05
75775;BME280;64505;51.458;7.556;2022-10-31T06:09:58;100207.25;;;10.37;88.17
75775;BME280;64505;51.458;7.556;2022-10-31T06:12:01;100211.31;;;10.40;87.61
75775;BME280;64505;51.458;7.556;2022-10-31T06:14:04;100214.78;;;10.33;88.11
75775;BME280;64505;51.458;7.556;2022-10-31T06:16:07;100210.94;;;10.29;88.35
75775;BME280;64505;51.458;7.556;2022-10-31T06:18:09;100214.97;;;10.38;87.98
75775;BME280;64505;51.458;7.556;2022-10-31T06:20:12;100205.22;;;10.32;88.80
75775;BME280;64505;51.458;7.556;2022-10-31T06:22:16;100206.69;;;10.22;89.21
75775;BME280;64505;51.458;7.556;2022-10-31T06:24:19;100206.47;;;10.30;88.18
75775;BME280;64505;51.458;7.556;2022-10-31T06:26:23;100205.25;;;10.26;88.99
75775;BME280;64505;51.458;7.556;2022-10-31T06:28:26;100204.84;;;10.29;88.75
75775;BME280;64505;51.458;7.556;2022-10-31T06:30:29;100205.84;;;10.28;88.54
75775;BME280;64505;51.458;7.556;2022-10-31T06:32:32;100204.81;;;10.35;88.16
75775;BME280;64505;51.458;7.556;2022-10-31T06:34:35;100205.44;;;10.38;88.72
75775;BME280;64505;51.458;7.556;2022-10-31T06:36:39;100204.19;;;10.40;88.92
75775;BME280;64505;51.458;7.556;2022-10-31T06:38:45;100204.81;;;10.35;88.86
75775;BME280;64505;51.458;7.556;2022-10-31T06:40:51;100201.97;;;10.37;88.30
75775;BME280;64505;51.458;7.556;2022-10-31T06:42:58;100202.13;;;10.49;88.55
75775;BME280;64505;51.458;7.556;2022-10-31T06:45:02;100202.69;;;10.57;87.63
75775;BME280;64505;51.458;7.556;2022-10-31T06:47:05;100200.81;;;10.64;87.78
75775;BME280;64505;51.458;7.556;2022-10-31T06:49:09;100214.00;;;10.71;86.82
75775;BME280;64505;51.458;7.556;2022-10-31T06:51:12;100208.09;;;10.75;87.01
75775;BME280;64505;51.458;7.556;2022-10-31T06:53:16;100209.09;;;10.81;86.59
75775;BME280;64505;51.458;7.556;2022-10-31T06:55:21;100212.00;;;10.73;88.08
75775;BME280;64505;51.458;7.556;2022-10-31T06:57:25;100214.66;;;10.66;88.44
75775;BME280;64505;51.458;7.556;2022-10-31T06:59:28;100214.28;;;10.63;87.47
75775;BME280;64505;51.458;7.556;2022-10-31T07:01:31;100219.50;;;10.76;87.34
75775;BME280;64505;51.458;7.556;2022-10-31T07:03:35;100219.88;;;10.79;87.60
75775;BME280;64505;51.458;7.556;2022-10-31T07:05:38;100223.94;;;10.82;87.09
75775;BME280;64505;51.458;7.556;2022-10-31T07:07:42;100217.59;;;10.90;86.77
75775;BME280;64505;51.458;7.556;2022-10-31T07:09:46;100220.41;;;10.95;87.56
75775;BME280;64505;51.458;7.556;2022-10-31T07:11:53;100220.38;;;11.01;87.28
75775;BME280;64505;51.458;7.556;2022-10-31T07:13:56;100219.56;;;11.01;87.55
75775;BME280;64505;51.458;7.556;2022-10-31T07:16:01;100219.34;;;11.02;87.64
75775;BME280;64505;51.458;7.556;2022-10-31T07:18:07;100213.06;;;11.03;87.63
75775;BME280;64505;51.458;7.556;2022-10-31T07:20:11;100218.09;;;11.05;86.59
75775;BME280;64505;51.458;7.556;2022-10-31T07:22:14;100217.09;;;11.06;87.48
75775;BME280;64505;51.458;7.556;2022-10-31T07:24:17;100225.22;;;11.04;87.64
75775;BME280;64505;51.458;7.556;2022-10-31T07:26:20;100223.59;;;11.10;86.18
75775;BME280;64505;51.458;7.556;2022-10-31T07:28:25;100225.41;;;11.09;86.28
75775;BME280;64505;51.458;7.556;2022-10-31T07:30:28;100228.06;;;11.09;86.94
75775;BME280;64505;51.458;7.556;2022-10-31T07:32:37;100225.81;;;11.13;87.35
75775;BME280;64505;51.458;7.556;2022-10-31T07:34:41;100229.81;;;11.22;85.84
75775;BME280;64505;51.458;7.556;2022-10-31T07:36:50;100223.38;;;11.36;85.34
75775;BME280;64505;51.458;7.556;2022-10-31T07:38:53;100219.34;;;11.33;86.69
75775;BME280;64505;51.458;7.556;2022-10-31T07:40:56;100222.53;;;11.42;85.02
75775;BME280;64505;51.458;7.556;2022-10-31T07:42:59;100220.03;;;11.47;85.42
75775;BME280;64505;51.458;7.556;2022-10-31T07:45:14;100224.16;;;11.43;86.24
75775;BME280;64505;51.458;7.556;2022-10-31T07:47:17;100235.78;;;11.42;86.64
75775;BME280;64505;51.458;7.556;2022-10-31T07:49:20;100231.31;;;11.43;86.39
75775;BME280;64505;51.458;7.556;2022-10-31T07:51:23;100225.78;;;11.44;85.62
75775;BME280;64505;51.458;7.556;2022-10-31T07:53:25;100225.56;;;11.46;86.50
75775;BME280;64505;51.458;7.556;2022-10-31T07:55:28;100222.53;;;11.42;86.34
75775;BME280;64505;51.458;7.556;2022-10-31T07:57:31;100222.50;;;11.49;85.77
75775;BME280;64505;51.458;7.556;2022-10-31T07:59:35;100220.66;;;11.49;85.45
75775;BME280;64505;51.458;7.556;2022-10-31T08:01:39;100222.44;;;11.55;85.71
75775;BME280;64505;51.458;7.556;2022-10-31T08:03:41;100221.03;;;11.53;85.84
75775;BME280;64505;51.458;7.556;2022-10-31T08:05:44;100213.97;;;11.65;85.41
75775;BME280;64505;51.458;7.556;2022-10-31T08:07:47;100205.41;;;11.69;85.38
75775;BME280;64505;51.458;7.556;2022-10-31T08:09:50;100211.09;;;11.73;85.04
75775;BME280;64505;51.458;7.556;2022-10-31T08:11:53;100205.00;;;11.72;85.83
75775;BME280;64505;51.458;7.556;2022-10-31T08:13:55;100212.09;;;11.78;85.20
75775;BME280;64505;51.458;7.556;2022-10-31T08:15:58;100209.94;;;11.87;84.52
75775;BME280;64505;51.458;7.556;2022-10-31T08:18:11;100203.19;;;11.91;84.75
75775;BME280;64505;51.458;7.556;2022-10-31T08:20:14;100203.34;;;11.96;84.61
75775;BME280;64505;51.458;7.556;2022-10-31T08:22:16;100201.66;;;12.02;84.49
75775;BME280;64505;51.458;7.556;2022-10-31T08:24:19;100201.06;;;12.18;83.77
75775;BME280;64505;51.458;7.556;2022-10-31T08:26:21;100208.28;;;12.29;83.51
75775;BME280;64505;51.458;7.556;2022-10-31T08:28:24;100211.69;;;12.36;83.22
75775;BME280;64505;51.458;7.556;2022-10-31T08:30:28;100209.69;;;12.50;83.04
75775;BME280;64505;51.458;7.556;2022-10-31T08:32:31;100209.13;;;12.59;82.25
75775;BME280;64505;51.458;7.556;2022-10-31T08:34:35;100207.16;;;12.84;81.64
75775;BME280;64505;51.458;7.556;2022-10-31T08:36:38;100206.16;;;12.86;81.14
75775;BME280;64505;51.458;7.556;2022-10-31T08:38:41;100208.03;;;12.97;81.32
75775;BME280;64505;51.458;7.556;2022-10-31T08:40:47;100211.63;;;13.02;80.74
75775;BME280;64505;51.458;7.556;2022-10-31T08:43:00;100208.91;;;13.09;81.20
75775;BME280;64505;51.458;7.556;2022-10-31T08:45:03;100208.69;;;13.10;81.08
75775;BME280;64505;51.458;7.556;2022-10-31T08:47:06;100203.28;;;13.28;80.74
75775;BME280;64505;51.458;7.556;2022-10-31T08:49:09;100196.16;;;13.41;80.03
75775;BME280;64505;51.458;7.556;2022-10-31T08:51:13;100198.22;;;13.39;79.78
75775;BME280;64505;51.458;7.556;2022-10-31T08:53:17;100199.31;;;13.61;80.33
75775;BME280;64505;51.458;7.556;2022-10-31T08:55:19;100195.59;;;13.62;79.13
75775;BME280;64505;51.458;7.556;2022-10-31T08:57:22;100191.22;;;13.67;79.01
75775;BME280;64505;51.458;7.556;2022-10-31T08:59:25;100190.78;;;13.70;79.21
75775;BME280;64505;51.458;7.556;2022-10-31T09:01:27;100191.22;;;13.79;78.81
75775;BME280;64505;51.458;7.556;2022-10-31T09:03:31;100194.34;;;13.88;78.84
75775;BME280;64505;51.458;7.556;2022-10-31T09:05:34;100195.63;;;13.85;79.37
75775;BME280;64505;51.458;7.556;2022-10-31T09:07:38;100189.94;;;13.93;79.70
75775;BME280;64505;51.458;7.556;2022-10-31T09:09:41;100200.47;;;13.88;79.37
75775;BME280;64505;51.458;7.556;2022-10-31T09:11:43;100195.25;;;13.93;79.47
75775;BME280;64505;51.458;7.556;2022-10-31T09:13:46;100198.16;;;13.92;79.56
75775;BME280;64505;51.458;7.556;2022-10-31T09:15:49;100198.38;;;13.90;79.86
75775;BME280;64505;51.458;7.556;2022-10-31T09:17:52;100191.44;;;13.89;79.58
75775;BME280;64505;51.458;7.556;2022-10-31T09:19:55;100193.19;;;13.95;80.00
75775;BME280;64505;51.458;7.556;2022-10-31T09:21:58;100197.22;;;13.86;79.73
75775;BME280;64505;51.458;7.556;2022-10-31T09:24:02;100194.91;;;13.90;80.12
75775;BME280;64505;51.458;7.556;2022-10-31T09:26:05;100189.94;;;13.93;80.32
75775;BME280;64505;51.458;7.556;2022-10-31T09:28:10;100177.44;;;13.94;79.85
75775;BME280;64505;51.458;7.556;2022-10-31T09:30:13;100182.78;;;13.94;80.05
75775;BME280;64505;51.458;7.556;2022-10-31T09:32:16;100179.06;;;13.95;80.39
75775;BME280;64505;51.458;7.556;2022-10-31T09:34:19;100183.22;;;14.02;80.51
75775;BME280;64505;51.458;7.556;2022-10-31T09:36:21;100178.00;;;14.07;80.72
75775;BME280;64505;51.458;7.556;2022-10-31T09:38:24;100179.06;;;14.06;80.38
75775;BME280;64505;51.458;7.556;2022-10-31T09:40:32;100174.09;;;14.10;80.23
75775;BME280;64505;51.458;7.556;2022-10-31T09:42:50;100173.84;;;14.11;79.73
75775;BME280;64505;51.458;7.556;2022-10-31T09:45:02;100175.44;;;14.24;79.25
75775;BME280;64505;51.458;7.556;2022-10-31T09:47:13;100170.47;;;14.39;78.93
75775;BME280;64505;51.458;7.556;2022-10-31T09:49:32;100167.63;;;14.57;78.37
75775;BME280;64505;51.458;7.556;2022-10-31T09:51:38;100163.19;;;14.63;77.95
75775;BME280;64505;51.458;7.556;2022-10-31T09:53:46;100163.38;;;14.73;77.75
75775;BME280;64505;51.458;7.556;2022-10-31T09:55:51;100151.88;;;14.84;77.03
75775;BME280;64505;51.458;7.556;2022-10-31T09:57:55;100157.91;;;14.79;77.02
75775;BME280;64505;51.458;7.556;2022-10-31T09:59:58;100154.63;;;14.89;77.40
75775;BME280;64505;51.458;7.556;2022-10-31T10:02:04;100149.88;;;14.91;77.14
75775;BME280;64505;51.458;7.556;2022-10-31T10:04:25;100160.34;;;14.98;76.91
75775;BME280;64505;51.458;7.556;2022-10-31T10:06:34;100158.28;;;15.00;76.73
75775;BME280;64505;51.458;7.556;2022-10-31T10:08:38;100157.13;;;14.96;76.72
75775;BME280;64505;51.458;7.556;2022-10-31T10:10:48;100152.47;;;15.03;76.49
75775;BME280;64505;51.458;7.556;2022-10-31T10:13:13;100152.06;;;15.11;76.82
75775;BME280;64505;51.458;7.556;2022-10-31T10:15:35;100149.41;;;15.11;75.79
75775;BME280;64505;51.458;7.556;2022-10-31T10:17:43;100156.84;;;15.25;76.23
75775;BME280;64505;51.458;7.556;2022-10-31T10:19:58;100144.00;;;15.56;75.23
75775;BME280;64505;51.458;7.556;2022-10-31T10:22:04;100143.38;;;15.49;75.60
75775;BME280;64505;51.458;7.556;2022-10-31T10:24:17;100140.88;;;15.59;75.17
75775;BME280;64505;51.458;7.556;2022-10-31T10:26:29;100137.41;;;15.58;75.07
75775;BME280;64505;51.458;7.556;2022-10-31T10:28:40;100136.97;;;15.66;74.86
75775;BME280;64505;51.458;7.556;2022-10-31T10:30:46;100138.63;;;15.51;76.02
75775;BME280;64505;51.458;7.556;2022-10-31T10:32:54;100137.13;;;15.43;75.64
75775;BME280;64505;51.458;7.556;2022-10-31T10:35:16;100132.69;;;15.65;75.18
75775;BME280;64505;51.458;7.556;2022-10-31T10:37:27;100132.53;;;15.72;75.13
75775;BME280;64505;51.458;7.556;2022-10-31T10:39:35;100130.09;;;15.70;75.66
75775;BME280;64505;51.458;7.556;2022-10-31T10:41:42;100122.72;;;15.99;73.89
75775;BME280;64505;51.458;7.556;2022-10-31T10:43:50;100119.66;;;16.07;73.67
75775;BME280;64505;51.458;7.556;2022-10-31T10:46:06;100119.91;;;16.06;73.91
75775;BME280;64505;51.458;7.556;2022-10-31T10:48:41;100117.16;;;16.01;74.48
75775;BME280;64505;51.458;7.556;2022-10-31T10:50:48;100111.34;;;16.04;74.92
75775;BME280;64505;51.458;7.556;2022-10-31T10:52:55;100106.72;;;15.99;74.69
75775;BME280;64505;51.458;7.556;2022-10-31T10:55:08;100100.44;;;16.05;74.35
75775;BME280;64505;51.458;7.556;2022-10-31T10:57:37;100103.50;;;16.19;74.84